sensor_id;sensor_type;location;lat;lon;timestamp;P1;durP1;ratioP1;P2;durP2;ratioP2
4553;SDS011;2289;48.316;15.174;2024-02-21T00:02:09;7.23;;;3.90;;
4553;SDS011;2289;48.316;15.174;2024-02-21T00:04:38;7.90;;;3.60;;
4553;SDS011;2289;48.316;15.174;2024-02-21T00:07:08;14.13;;;4.97;;
4553;SDS011;2289;48.316;15.174;2024-02-21T00:09:38;7.97;;;3.93;;
4553;SDS011;2289;48.316;15.174;2024-02-21T00:12:06;9.30;;;4.63;;
4553;SDS011;2289;48.316;15.174;2024-02-21T00:14:36;9.03;;;3.33;;
4553;SDS011;2289;48.316;15.174;2024-02-21T00:17:04;13.73;;;3.20;;
4553;SDS011;2289;48.316;15.174;2024-02-21T00:19:35;6.50;;;3.17;;
4553;SDS011;2289;48.316;15.174;2024-02-21T00:22:03;6.93;;;3.20;;
4553;SDS011;2289;48.316;15.174;2024-02-21T00:24:34;13.63;;;4.43;;
4553;SDS011;2289;48.316;15.174;2024-02-21T00:27:02;4.50;;;3.17;;
4553;SDS011;2289;48.316;15.174;2024-02-21T00:29:30;6.63;;;3.63;;
4553;SDS011;2289;48.316;15.174;2024-02-21T00:31:59;10.70;;;3.47;;
4553;SDS011;2289;48.316;15.174;2024-02-21T00:34:27;15.37;;;3.77;;
4553;SDS011;2289;48.316;15.174;2024-02-21T00:36:56;5.03;;;3.17;;
4553;SDS011;2289;48.316;15.174;2024-02-21T00:39:25;5.80;;;2.83;;
4553;SDS011;2289;48.316;15.174;2024-02-21T00:41:55;12.37;;;3.27;;
4553;SDS011;2289;48.316;15.174;2024-02-21T00:44:23;10.40;;;2.97;;
4553;SDS011;2289;48.316;15.174;2024-02-21T00:46:52;5.37;;;3.33;;
4553;SDS011;2289;48.316;15.174;2024-02-21T00:49:21;5.20;;;3.37;;
4553;SDS011;2289;48.316;15.174;2024-02-21T00:51:49;10.93;;;4.47;;
4553;SDS011;2289;48.316;15.174;2024-02-21T00:54:18;3.97;;;2.80;;
4553;SDS011;2289;48.316;15.174;2024-02-21T00:56:46;3.70;;;2.80;;
4553;SDS011;2289;48.316;15.174;2024-02-21T00:59:16;14.93;;;3.50;;
4553;SDS011;2289;48.316;15.174;2024-02-21T01:01:45;16.90;;;3.80;;
4553;SDS011;2289;48.316;15.174;2024-02-21T01:04:14;3.50;;;2.70;;
4553;SDS011;2289;48.316;15.174;2024-02-21T01:06:43;8.03;;;4.10;;
4553;SDS011;2289;48.316;15.174;2024-02-21T01:09:12;8.33;;;3.10;;
4553;SDS011;2289;48.316;15.174;2024-02-21T01:11:42;8.93;;;3.60;;
4553;SDS011;2289;48.316;15.174;2024-02-21T01:14:10;12.53;;;3.57;;
4553;SDS011;2289;48.316;15.174;2024-02-21T01:16:40;6.40;;;2.60;;
4553;SDS011;2289;48.316;15.174;2024-02-21T01:19:09;9.23;;;3.10;;
4553;SDS011;2289;48.316;15.174;2024-02-21T01:21:38;9.03;;;2.90;;
4553;SDS011;2289;48.316;15.174;2024-02-21T01:24:06;7.13;;;3.20;;
4553;SDS011;2289;48.316;15.174;2024-02-21T01:26:35;14.03;;;4.20;;
4553;SDS011;2289;48.316;15.174;2024-02-21T01:29:04;4.77;;;3.00;;
4553;SDS011;2289;48.316;15.174;2024-02-21T01:31:32;6.90;;;3.43;;
4553;SDS011;2289;48.316;15.174;2024-02-21T01:34:03;8.67;;;2.87;;
4553;SDS011;2289;48.316;15.174;2024-02-21T01:36:32;9.33;;;3.73;;
4553;SDS011;2289;48.316;15.174;2024-02-21T01:39:01;8.53;;;3.57;;
4553;SDS011;2289;48.316;15.174;2024-02-21T01:41:30;9.40;;;4.20;;
4553;SDS011;2289;48.316;15.174;2024-02-21T01:44:01;5.00;;;3.20;;
4553;SDS011;2289;48.316;15.174;2024-02-21T01:46:31;7.53;;;3.60;;
4553;SDS011;2289;48.316;15.174;2024-02-21T01:49:00;8.17;;;3.50;;
4553;SDS011;2289;48.316;15.174;2024-02-21T01:51:30;8.93;;;3.57;;
4553;SDS011;2289;48.316;15.174;2024-02-21T01:53:59;8.23;;;3.30;;
4553;SDS011;2289;48.316;15.174;2024-02-21T01:56:28;6.03;;;2.93;;
4553;SDS011;2289;48.316;15.174;2024-02-21T01:58:57;6.97;;;3.70;;
4553;SDS011;2289;48.316;15.174;2024-02-21T02:01:26;6.20;;;3.13;;
4553;SDS011;2289;48.316;15.174;2024-02-21T02:03:58;6.57;;;3.13;;
4553;SDS011;2289;48.316;15.174;2024-02-21T02:06:28;9.10;;;3.37;;
4553;SDS011;2289;48.316;15.174;2024-02-21T02:08:58;12.97;;;3.80;;
4553;SDS011;2289;48.316;15.174;2024-02-21T02:11:27;6.60;;;3.60;;
4553;SDS011;2289;48.316;15.174;2024-02-21T02:13:56;6.30;;;3.40;;
4553;SDS011;2289;48.316;15.174;2024-02-21T02:16:28;7.80;;;3.57;;
4553;SDS011;2289;48.316;15.174;2024-02-21T02:18:57;12.13;;;4.93;;
4553;SDS011;2289;48.316;15.174;2024-02-21T02:21:27;12.20;;;3.93;;
4553;SDS011;2289;48.316;15.174;2024-02-21T02:23:59;11.23;;;3.50;;
4553;SDS011;2289;48.316;15.174;2024-02-21T02:26:27;8.37;;;3.80;;
4553;SDS011;2289;48.316;15.174;2024-02-21T02:28:56;7.40;;;3.10;;
4553;SDS011;2289;48.316;15.174;2024-02-21T02:31:25;13.63;;;3.33;;
4553;SDS011;2289;48.316;15.174;2024-02-21T02:33:54;10.10;;;3.93;;
4553;SDS011;2289;48.316;15.174;2024-02-21T02:36:23;5.27;;;2.80;;
4553;SDS011;2289;48.316;15.174;2024-02-21T02:38:52;6.43;;;3.30;;
4553;SDS011;2289;48.316;15.174;2024-02-21T02:41:23;6.30;;;3.50;;
4553;SDS011;2289;48.316;15.174;2024-02-21T02:43:51;6.13;;;4.37;;
4553;SDS011;2289;48.316;15.174;2024-02-21T02:46:20;11.13;;;4.10;;
4553;SDS011;2289;48.316;15.174;2024-02-21T02:48:49;5.27;;;2.93;;
4553;SDS011;2289;48.316;15.174;2024-02-21T02:51:21;9.70;;;3.83;;
4553;SDS011;2289;48.316;15.174;2024-02-21T02:53:50;10.33;;;4.47;;
4553;SDS011;2289;48.316;15.174;2024-02-21T02:56:18;7.90;;;4.07;;
4553;SDS011;2289;48.316;15.174;2024-02-21T02:58:49;8.13;;;5.67;;
4553;SDS011;2289;48.316;15.174;2024-02-21T03:01:17;7.07;;;4.20;;
4553;SDS011;2289;48.316;15.174;2024-02-21T03:03:46;6.87;;;4.30;;
4553;SDS011;2289;48.316;15.174;2024-02-21T03:06:15;7.57;;;3.70;;
4553;SDS011;2289;48.316;15.174;2024-02-21T03:08:43;5.30;;;3.83;;
4553;SDS011;2289;48.316;15.174;2024-02-21T03:11:12;9.00;;;5.63;;
4553;SDS011;2289;48.316;15.174;2024-02-21T03:13:42;7.07;;;4.77;;
4553;SDS011;2289;48.316;15.174;2024-02-21T03:16:12;10.67;;;5.37;;
4553;SDS011;2289;48.316;15.174;2024-02-21T03:18:41;10.37;;;5.30;;
4553;SDS011;2289;48.316;15.174;2024-02-21T03:21:10;11.30;;;3.53;;
4553;SDS011;2289;48.316;15.174;2024-02-21T03:23:39;9.33;;;4.60;;
4553;SDS011;2289;48.316;15.174;2024-02-21T03:26:07;13.00;;;5.97;;
4553;SDS011;2289;48.316;15.174;2024-02-21T03:28:36;14.37;;;4.77;;
4553;SDS011;2289;48.316;15.174;2024-02-21T03:31:06;18.40;;;7.63;;
4553;SDS011;2289;48.316;15.174;2024-02-21T03:33:36;26.77;;;5.23;;
4553;SDS011;2289;48.316;15.174;2024-02-21T03:36:05;6.97;;;4.40;;
4553;SDS011;2289;48.316;15.174;2024-02-21T03:38:33;7.57;;;4.67;;
4553;SDS011;2289;48.316;15.174;2024-02-21T03:41:02;8.33;;;5.60;;
4553;SDS011;2289;48.316;15.174;2024-02-21T03:43:31;13.30;;;4.70;;
4553;SDS011;2289;48.316;15.174;2024-02-21T03:46:00;8.90;;;4.57;;
4553;SDS011;2289;48.316;15.174;2024-02-21T03:48:29;7.00;;;3.97;;
4553;SDS011;2289;48.316;15.174;2024-02-21T03:51:00;7.97;;;5.23;;
4553;SDS011;2289;48.316;15.174;2024-02-21T03:53:29;11.00;;;5.20;;
4553;SDS011;2289;48.316;15.174;2024-02-21T03:56:00;5.90;;;3.97;;
4553;SDS011;2289;48.316;15.174;2024-02-21T03:58:31;10.30;;;4.30;;
4553;SDS011;2289;48.316;15.174;2024-02-21T04:01:00;15.87;;;5.43;;
4553;SDS011;2289;48.316;15.174;2024-02-21T04:03:28;8.53;;;4.10;;
4553;SDS011;2289;48.316;15.174;2024-02-21T04:05:57;5.13;;;4.10;;
4553;SDS011;2289;48.316;15.174;2024-02-21T04:08:28;4.90;;;4.40;;
4553;SDS011;2289;48.316;15.174;2024-02-21T04:10:57;5.83;;;4.97;;
4553;SDS011;2289;48.316;15.174;2024-02-21T04:13:26;7.63;;;5.00;;
4553;SDS011;2289;48.316;15.174;2024-02-21T04:15:54;9.93;;;5.03;;
4553;SDS011;2289;48.316;15.174;2024-02-21T04:18:23;7.97;;;4.77;;
4553;SDS011;2289;48.316;15.174;2024-02-21T04:20:52;8.40;;;5.20;;
4553;SDS011;2289;48.316;15.174;2024-02-21T04:23:20;12.00;;;4.27;;
4553;SDS011;2289;48.316;15.174;2024-02-21T04:25:50;10.83;;;4.93;;
4553;SDS011;2289;48.316;15.174;2024-02-21T04:28:20;9.13;;;5.03;;
4553;SDS011;2289;48.316;15.174;2024-02-21T04:30:49;9.30;;;4.53;;
4553;SDS011;2289;48.316;15.174;2024-02-21T04:33:18;5.60;;;4.13;;
4553;SDS011;2289;48.316;15.174;2024-02-21T04:35:50;18.63;;;6.30;;
4553;SDS011;2289;48.316;15.174;2024-02-21T04:38:22;8.53;;;4.53;;
4553;SDS011;2289;48.316;15.174;2024-02-21T04:40:51;7.87;;;4.60;;
4553;SDS011;2289;48.316;15.174;2024-02-21T04:43:20;9.00;;;5.67;;
4553;SDS011;2289;48.316;15.174;2024-02-21T04:45:49;10.80;;;4.90;;
4553;SDS011;2289;48.316;15.174;2024-02-21T04:48:17;6.50;;;4.10;;
4553;SDS011;2289;48.316;15.174;2024-02-21T04:50:46;22.70;;;4.37;;
4553;SDS011;2289;48.316;15.174;2024-02-21T04:53:14;7.10;;;5.30;;
4553;SDS011;2289;48.316;15.174;2024-02-21T04:55:43;8.20;;;3.93;;
4553;SDS011;2289;48.316;15.174;2024-02-21T04:58:15;4.23;;;3.37;;
4553;SDS011;2289;48.316;15.174;2024-02-21T05:00:43;6.77;;;2.80;;
4553;SDS011;2289;48.316;15.174;2024-02-21T05:03:12;11.40;;;3.90;;
4553;SDS011;2289;48.316;15.174;2024-02-21T05:05:41;7.07;;;2.57;;
4553;SDS011;2289;48.316;15.174;2024-02-21T05:08:11;7.27;;;2.93;;
4553;SDS011;2289;48.316;15.174;2024-02-21T05:10:39;6.60;;;3.30;;
4553;SDS011;2289;48.316;15.174;2024-02-21T05:13:08;7.30;;;2.70;;
4553;SDS011;2289;48.316;15.174;2024-02-21T05:15:38;5.37;;;2.53;;
4553;SDS011;2289;48.316;15.174;2024-02-21T05:18:07;3.43;;;2.30;;
4553;SDS011;2289;48.316;15.174;2024-02-21T05:20:35;5.60;;;2.70;;
4553;SDS011;2289;48.316;15.174;2024-02-21T05:23:04;4.00;;;2.50;;
4553;SDS011;2289;48.316;15.174;2024-02-21T05:25:33;5.27;;;2.30;;
4553;SDS011;2289;48.316;15.174;2024-02-21T05:28:02;8.97;;;2.83;;
4553;SDS011;2289;48.316;15.174;2024-02-21T05:30:33;4.43;;;2.53;;
4553;SDS011;2289;48.316;15.174;2024-02-21T05:33:05;4.37;;;2.33;;
4553;SDS011;2289;48.316;15.174;2024-02-21T05:35:35;6.60;;;2.50;;
4553;SDS011;2289;48.316;15.174;2024-02-21T05:38:04;6.03;;;2.50;;
4553;SDS011;2289;48.316;15.174;2024-02-21T05:40:38;3.23;;;1.93;;
4553;SDS011;2289;48.316;15.174;2024-02-21T05:43:08;9.67;;;3.07;;
4553;SDS011;2289;48.316;15.174;2024-02-21T05:45:37;10.97;;;2.17;;
4553;SDS011;2289;48.316;15.174;2024-02-21T05:48:07;6.10;;;2.13;;
4553;SDS011;2289;48.316;15.174;2024-02-21T05:50:35;12.07;;;2.30;;
4553;SDS011;2289;48.316;15.174;2024-02-21T05:53:05;4.10;;;2.20;;
4553;SDS011;2289;48.316;15.174;2024-02-21T05:55:34;7.87;;;2.60;;
4553;SDS011;2289;48.316;15.174;2024-02-21T05:58:03;8.47;;;2.40;;
4553;SDS011;2289;48.316;15.174;2024-02-21T06:00:32;3.50;;;2.20;;
4553;SDS011;2289;48.316;15.174;2024-02-21T06:03:01;5.37;;;2.47;;
4553;SDS011;2289;48.316;15.174;2024-02-21T06:05:31;2.83;;;1.90;;
4553;SDS011;2289;48.316;15.174;2024-02-21T06:07:59;11.37;;;2.70;;
4553;SDS011;2289;48.316;15.174;2024-02-21T06:10:28;4.40;;;2.17;;
4553;SDS011;2289;48.316;15.174;2024-02-21T06:12:57;9.07;;;2.27;;
4553;SDS011;2289;48.316;15.174;2024-02-21T06:15:27;8.27;;;1.80;;
4553;SDS011;2289;48.316;15.174;2024-02-21T06:17:58;9.10;;;2.27;;
4553;SDS011;2289;48.316;15.174;2024-02-21T06:20:27;7.10;;;1.67;;
4553;SDS011;2289;48.316;15.174;2024-02-21T06:22:58;6.67;;;2.60;;
4553;SDS011;2289;48.316;15.174;2024-02-21T06:25:27;9.37;;;2.43;;
4553;SDS011;2289;48.316;15.174;2024-02-21T06:27:57;10.63;;;3.03;;
4553;SDS011;2289;48.316;15.174;2024-02-21T06:30:26;4.40;;;2.60;;
4553;SDS011;2289;48.316;15.174;2024-02-21T06:32:54;9.07;;;2.10;;
4553;SDS011;2289;48.316;15.174;2024-02-21T06:35:44;7.20;;;2.60;;
4553;SDS011;2289;48.316;15.174;2024-02-21T06:38:15;4.33;;;3.87;;
4553;SDS011;2289;48.316;15.174;2024-02-21T06:40:45;3.67;;;1.83;;
4553;SDS011;2289;48.316;15.174;2024-02-21T06:43:17;10.90;;;2.50;;
4553;SDS011;2289;48.316;15.174;2024-02-21T06:45:47;7.33;;;2.20;;
4553;SDS011;2289;48.316;15.174;2024-02-21T06:48:18;8.00;;;2.40;;
4553;SDS011;2289;48.316;15.174;2024-02-21T06:50:47;6.63;;;2.27;;
4553;SDS011;2289;48.316;15.174;2024-02-21T06:53:17;5.20;;;2.03;;
4553;SDS011;2289;48.316;15.174;2024-02-21T06:55:46;7.03;;;2.17;;
4553;SDS011;2289;48.316;15.174;2024-02-21T06:58:16;5.63;;;1.87;;
4553;SDS011;2289;48.316;15.174;2024-02-21T07:00:44;4.20;;;1.63;;
4553;SDS011;2289;48.316;15.174;2024-02-21T07:03:13;3.23;;;2.37;;
4553;SDS011;2289;48.316;15.174;2024-02-21T07:05:42;4.40;;;2.07;;
4553;SDS011;2289;48.316;15.174;2024-02-21T07:08:13;8.40;;;1.80;;
4553;SDS011;2289;48.316;15.174;2024-02-21T07:10:43;9.43;;;2.23;;
4553;SDS011;2289;48.316;15.174;2024-02-21T07:13:12;6.00;;;2.60;;
4553;SDS011;2289;48.316;15.174;2024-02-21T07:15:44;5.33;;;2.90;;
4553;SDS011;2289;48.316;15.174;2024-02-21T07:18:13;9.70;;;3.70;;
4553;SDS011;2289;48.316;15.174;2024-02-21T07:20:41;3.77;;;2.43;;
4553;SDS011;2289;48.316;15.174;2024-02-21T07:23:10;5.87;;;2.00;;
4553;SDS011;2289;48.316;15.174;2024-02-21T07:25:39;7.93;;;2.37;;
4553;SDS011;2289;48.316;15.174;2024-02-21T07:28:09;7.73;;;2.63;;
4553;SDS011;2289;48.316;15.174;2024-02-21T07:30:38;10.00;;;2.03;;
4553;SDS011;2289;48.316;15.174;2024-02-21T07:33:07;3.53;;;2.10;;
4553;SDS011;2289;48.316;15.174;2024-02-21T07:35:36;2.80;;;1.90;;
4553;SDS011;2289;48.316;15.174;2024-02-21T07:38:07;9.80;;;2.40;;
4553;SDS011;2289;48.316;15.174;2024-02-21T07:40:39;4.80;;;1.40;;
4553;SDS011;2289;48.316;15.174;2024-02-21T07:43:09;4.83;;;1.87;;
4553;SDS011;2289;48.316;15.174;2024-02-21T07:45:38;8.23;;;2.40;;
4553;SDS011;2289;48.316;15.174;2024-02-21T07:48:08;4.87;;;2.00;;
4553;SDS011;2289;48.316;15.174;2024-02-21T07:50:38;7.10;;;2.70;;
4553;SDS011;2289;48.316;15.174;2024-02-21T07:53:06;3.80;;;2.60;;
4553;SDS011;2289;48.316;15.174;2024-02-21T07:55:35;3.67;;;1.60;;
4553;SDS011;2289;48.316;15.174;2024-02-21T07:58:04;8.50;;;2.17;;
4553;SDS011;2289;48.316;15.174;2024-02-21T08:00:36;4.50;;;2.10;;
4553;SDS011;2289;48.316;15.174;2024-02-21T08:03:05;6.93;;;2.60;;
4553;SDS011;2289;48.316;15.174;2024-02-21T08:05:34;6.63;;;2.20;;
4553;SDS011;2289;48.316;15.174;2024-02-21T08:08:06;3.43;;;1.63;;
4553;SDS011;2289;48.316;15.174;2024-02-21T08:10:35;2.77;;;1.60;;
4553;SDS011;2289;48.316;15.174;2024-02-21T08:13:04;10.67;;;2.53;;
4553;SDS011;2289;48.316;15.174;2024-02-21T08:15:33;4.10;;;1.70;;
4553;SDS011;2289;48.316;15.174;2024-02-21T08:18:04;4.80;;;1.63;;
4553;SDS011;2289;48.316;15.174;2024-02-21T08:20:33;5.33;;;2.00;;
4553;SDS011;2289;48.316;15.174;2024-02-21T08:23:02;3.90;;;1.70;;
4553;SDS011;2289;48.316;15.174;2024-02-21T08:25:32;4.70;;;1.87;;
4553;SDS011;2289;48.316;15.174;2024-02-21T08:28:00;5.80;;;1.70;;
4553;SDS011;2289;48.316;15.174;2024-02-21T08:30:29;4.63;;;2.43;;
4553;SDS011;2289;48.316;15.174;2024-02-21T08:32:57;10.30;;;1.70;;
4553;SDS011;2289;48.316;15.174;2024-02-21T08:35:28;7.13;;;2.27;;
4553;SDS011;2289;48.316;15.174;2024-02-21T08:37:57;6.93;;;1.67;;
4553;SDS011;2289;48.316;15.174;2024-02-21T08:40:26;3.03;;;1.53;;
4553;SDS011;2289;48.316;15.174;2024-02-21T08:42:59;3.70;;;1.83;;
4553;SDS011;2289;48.316;15.174;2024-02-21T08:45:31;3.70;;;2.57;;
4553;SDS011;2289;48.316;15.174;2024-02-21T08:48:00;3.50;;;2.07;;
4553;SDS011;2289;48.316;15.174;2024-02-21T08:50:30;6.47;;;1.87;;
4553;SDS011;2289;48.316;15.174;2024-02-21T08:52:59;6.30;;;1.57;;
4553;SDS011;2289;48.316;15.174;2024-02-21T08:55:28;6.57;;;2.13;;
4553;SDS011;2289;48.316;15.174;2024-02-21T08:57:57;6.80;;;1.80;;
4553;SDS011;2289;48.316;15.174;2024-02-21T09:00:26;4.93;;;2.37;;
4553;SDS011;2289;48.316;15.174;2024-02-21T09:02:55;7.30;;;2.83;;
4553;SDS011;2289;48.316;15.174;2024-02-21T09:05:24;3.93;;;1.93;;
4553;SDS011;2289;48.316;15.174;2024-02-21T09:07:54;8.03;;;2.47;;
4553;SDS011;2289;48.316;15.174;2024-02-21T09:10:23;4.63;;;1.70;;
4553;SDS011;2289;48.316;15.174;2024-02-21T09:12:52;4.93;;;1.93;;
4553;SDS011;2289;48.316;15.174;2024-02-21T09:15:20;8.63;;;2.60;;
4553;SDS011;2289;48.316;15.174;2024-02-21T09:17:51;4.50;;;2.10;;
4553;SDS011;2289;48.316;15.174;2024-02-21T09:20:19;7.10;;;1.70;;
4553;SDS011;2289;48.316;15.174;2024-02-21T09:22:48;7.33;;;2.17;;
4553;SDS011;2289;48.316;15.174;2024-02-21T09:25:19;4.10;;;1.87;;
4553;SDS011;2289;48.316;15.174;2024-02-21T09:27:47;8.50;;;2.07;;
4553;SDS011;2289;48.316;15.174;2024-02-21T09:30:16;9.37;;;2.33;;
4553;SDS011;2289;48.316;15.174;2024-02-21T09:32:45;4.20;;;2.13;;
4553;SDS011;2289;48.316;15.174;2024-02-21T09:35:15;6.20;;;2.30;;
4553;SDS011;2289;48.316;15.174;2024-02-21T09:37:43;4.67;;;1.40;;
4553;SDS011;2289;48.316;15.174;2024-02-21T09:40:12;8.53;;;1.70;;
4553;SDS011;2289;48.316;15.174;2024-02-21T09:42:46;8.20;;;2.33;;
4553;SDS011;2289;48.316;15.174;2024-02-21T09:45:19;7.40;;;2.50;;
4553;SDS011;2289;48.316;15.174;2024-02-21T09:47:56;5.33;;;2.10;;
4553;SDS011;2289;48.316;15.174;2024-02-21T09:50:31;3.70;;;1.57;;
4553;SDS011;2289;48.316;15.174;2024-02-21T09:53:03;4.03;;;2.20;;
4553;SDS011;2289;48.316;15.174;2024-02-21T09:55:33;6.77;;;2.00;;
4553;SDS011;2289;48.316;15.174;2024-02-21T09:58:04;2.90;;;1.63;;
4553;SDS011;2289;48.316;15.174;2024-02-21T10:00:33;4.90;;;1.70;;
4553;SDS011;2289;48.316;15.174;2024-02-21T10:03:01;2.40;;;1.70;;
4553;SDS011;2289;48.316;15.174;2024-02-21T10:05:35;6.07;;;2.10;;
4553;SDS011;2289;48.316;15.174;2024-02-21T10:08:04;4.03;;;1.77;;
4553;SDS011;2289;48.316;15.174;2024-02-21T10:10:40;2.67;;;1.50;;
4553;SDS011;2289;48.316;15.174;2024-02-21T10:13:21;8.97;;;2.47;;
4553;SDS011;2289;48.316;15.174;2024-02-21T10:16:00;3.40;;;1.80;;
4553;SDS011;2289;48.316;15.174;2024-02-21T10:18:30;6.73;;;1.60;;
4553;SDS011;2289;48.316;15.174;2024-02-21T10:21:02;3.73;;;1.73;;
4553;SDS011;2289;48.316;15.174;2024-02-21T10:23:44;5.73;;;2.00;;
4553;SDS011;2289;48.316;15.174;2024-02-21T10:26:15;7.93;;;1.90;;
4553;SDS011;2289;48.316;15.174;2024-02-21T10:28:46;5.40;;;1.70;;
4553;SDS011;2289;48.316;15.174;2024-02-21T10:31:22;4.20;;;1.70;;
4553;SDS011;2289;48.316;15.174;2024-02-21T10:33:55;2.93;;;2.03;;
4553;SDS011;2289;48.316;15.174;2024-02-21T10:36:25;7.40;;;2.30;;
4553;SDS011;2289;48.316;15.174;2024-02-21T10:38:54;5.73;;;2.17;;
4553;SDS011;2289;48.316;15.174;2024-02-21T10:41:23;4.70;;;1.60;;
4553;SDS011;2289;48.316;15.174;2024-02-21T10:43:55;5.60;;;1.57;;
4553;SDS011;2289;48.316;15.174;2024-02-21T10:46:24;3.70;;;1.70;;
4553;SDS011;2289;48.316;15.174;2024-02-21T10:48:56;7.60;;;2.00;;
4553;SDS011;2289;48.316;15.174;2024-02-21T10:51:32;6.17;;;1.67;;
4553;SDS011;2289;48.316;15.174;2024-02-21T10:54:06;7.17;;;2.23;;
4553;SDS011;2289;48.316;15.174;2024-02-21T10:56:41;4.87;;;1.90;;
4553;SDS011;2289;48.316;15.174;2024-02-21T10:59:11;2.50;;;1.47;;
4553;SDS011;2289;48.316;15.174;2024-02-21T11:01:41;4.23;;;1.97;;
4553;SDS011;2289;48.316;15.174;2024-02-21T11:04:10;4.50;;;2.10;;
4553;SDS011;2289;48.316;15.174;2024-02-21T11:06:40;7.50;;;2.50;;
4553;SDS011;2289;48.316;15.174;2024-02-21T11:09:10;8.67;;;3.07;;
4553;SDS011;2289;48.316;15.174;2024-02-21T11:11:40;12.63;;;2.63;;
4553;SDS011;2289;48.316;15.174;2024-02-21T11:14:10;12.93;;;1.80;;
4553;SDS011;2289;48.316;15.174;2024-02-21T11:16:46;7.40;;;1.37;;
4553;SDS011;2289;48.316;15.174;2024-02-21T11:19:19;5.10;;;1.90;;
4553;SDS011;2289;48.316;15.174;2024-02-21T11:21:48;3.20;;;1.70;;
4553;SDS011;2289;48.316;15.174;2024-02-21T11:24:25;2.70;;;2.03;;
4553;SDS011;2289;48.316;15.174;2024-02-21T11:26:56;6.07;;;2.77;;
4553;SDS011;2289;48.316;15.174;2024-02-21T11:29:41;5.10;;;1.77;;
4553;SDS011;2289;48.316;15.174;2024-02-21T11:32:11;5.97;;;2.13;;
4553;SDS011;2289;48.316;15.174;2024-02-21T11:34:52;4.10;;;1.43;;
4553;SDS011;2289;48.316;15.174;2024-02-21T11:37:24;4.83;;;2.20;;
4553;SDS011;2289;48.316;15.174;2024-02-21T11:39:55;6.97;;;2.00;;
4553;SDS011;2289;48.316;15.174;2024-02-21T11:42:24;3.47;;;1.77;;
4553;SDS011;2289;48.316;15.174;2024-02-21T11:44:55;2.70;;;1.53;;
4553;SDS011;2289;48.316;15.174;2024-02-21T11:47:24;6.73;;;4.40;;
4553;SDS011;2289;48.316;15.174;2024-02-21T11:49:54;5.93;;;2.63;;
4553;SDS011;2289;48.316;15.174;2024-02-21T11:52:23;3.17;;;1.40;;
4553;SDS011;2289;48.316;15.174;2024-02-21T11:54:55;4.97;;;1.70;;
4553;SDS011;2289;48.316;15.174;2024-02-21T11:57:32;2.87;;;1.33;;
4553;SDS011;2289;48.316;15.174;2024-02-21T12:00:12;5.90;;;2.20;;
4553;SDS011;2289;48.316;15.174;2024-02-21T12:02:42;2.20;;;1.57;;
4553;SDS011;2289;48.316;15.174;2024-02-21T12:05:12;8.07;;;1.80;;
4553;SDS011;2289;48.316;15.174;2024-02-21T12:07:41;5.13;;;2.00;;
4553;SDS011;2289;48.316;15.174;2024-02-21T12:10:11;2.30;;;1.50;;
4553;SDS011;2289;48.316;15.174;2024-02-21T12:12:40;2.97;;;1.50;;
4553;SDS011;2289;48.316;15.174;2024-02-21T12:15:09;6.70;;;2.60;;
4553;SDS011;2289;48.316;15.174;2024-02-21T12:17:39;1.97;;;1.43;;
4553;SDS011;2289;48.316;15.174;2024-02-21T12:20:09;5.30;;;2.20;;
4553;SDS011;2289;48.316;15.174;2024-02-21T12:22:39;2.73;;;2.03;;
4553;SDS011;2289;48.316;15.174;2024-02-21T12:25:16;7.80;;;2.23;;
4553;SDS011;2289;48.316;15.174;2024-02-21T12:27:46;6.63;;;2.27;;
4553;SDS011;2289;48.316;15.174;2024-02-21T12:30:17;3.90;;;1.90;;
4553;SDS011;2289;48.316;15.174;2024-02-21T12:32:47;3.13;;;1.90;;
4553;SDS011;2289;48.316;15.174;2024-02-21T12:35:17;8.00;;;1.43;;
4553;SDS011;2289;48.316;15.174;2024-02-21T12:37:46;1.60;;;1.37;;
4553;SDS011;2289;48.316;15.174;2024-02-21T12:40:15;3.73;;;1.63;;
4553;SDS011;2289;48.316;15.174;2024-02-21T12:42:44;8.67;;;1.50;;
4553;SDS011;2289;48.316;15.174;2024-02-21T12:45:13;6.10;;;1.93;;
4553;SDS011;2289;48.316;15.174;2024-02-21T12:47:44;5.23;;;2.47;;
4553;SDS011;2289;48.316;15.174;2024-02-21T12:50:13;4.17;;;1.90;;
4553;SDS011;2289;48.316;15.174;2024-02-21T12:52:42;5.23;;;2.17;;
4553;SDS011;2289;48.316;15.174;2024-02-21T12:55:10;5.90;;;1.67;;
4553;SDS011;2289;48.316;15.174;2024-02-21T12:57:41;3.77;;;1.90;;
4553;SDS011;2289;48.316;15.174;2024-02-21T13:00:10;3.77;;;1.70;;
4553;SDS011;2289;48.316;15.174;2024-02-21T13:02:41;3.37;;;1.50;;
4553;SDS011;2289;48.316;15.174;2024-02-21T13:05:12;2.23;;;1.57;;
4553;SDS011;2289;48.316;15.174;2024-02-21T13:07:41;2.07;;;1.10;;
4553;SDS011;2289;48.316;15.174;2024-02-21T13:10:10;2.10;;;1.27;;
4553;SDS011;2289;48.316;15.174;2024-02-21T13:12:38;2.67;;;1.97;;
4553;SDS011;2289;48.316;15.174;2024-02-21T13:15:08;3.70;;;2.60;;
4553;SDS011;2289;48.316;15.174;2024-02-21T13:17:38;4.77;;;1.37;;
4553;SDS011;2289;48.316;15.174;2024-02-21T13:20:08;3.17;;;1.40;;
4553;SDS011;2289;48.316;15.174;2024-02-21T13:22:40;2.50;;;1.13;;
4553;SDS011;2289;48.316;15.174;2024-02-21T13:25:09;2.50;;;1.77;;
4553;SDS011;2289;48.316;15.174;2024-02-21T13:27:42;2.70;;;1.37;;
4553;SDS011;2289;48.316;15.174;2024-02-21T13:30:11;3.77;;;1.30;;
4553;SDS011;2289;48.316;15.174;2024-02-21T13:32:42;3.13;;;1.20;;
4553;SDS011;2289;48.316;15.174;2024-02-21T13:35:13;4.43;;;1.43;;
4553;SDS011;2289;48.316;15.174;2024-02-21T13:37:44;2.87;;;1.53;;
4553;SDS011;2289;48.316;15.174;2024-02-21T13:40:18;2.50;;;1.07;;
4553;SDS011;2289;48.316;15.174;2024-02-21T13:42:47;2.67;;;0.97;;
4553;SDS011;2289;48.316;15.174;2024-02-21T13:45:20;2.90;;;1.37;;
4553;SDS011;2289;48.316;15.174;2024-02-21T13:47:48;3.20;;;1.90;;
4553;SDS011;2289;48.316;15.174;2024-02-21T13:50:17;6.33;;;1.50;;
4553;SDS011;2289;48.316;15.174;2024-02-21T13:52:48;5.03;;;2.77;;
4553;SDS011;2289;48.316;15.174;2024-02-21T13:55:17;4.70;;;1.47;;
4553;SDS011;2289;48.316;15.174;2024-02-21T13:57:49;2.60;;;1.63;;
4553;SDS011;2289;48.316;15.174;2024-02-21T14:00:18;2.90;;;1.93;;
4553;SDS011;2289;48.316;15.174;2024-02-21T14:02:47;3.93;;;1.47;;
4553;SDS011;2289;48.316;15.174;2024-02-21T14:05:16;3.07;;;1.40;;
4553;SDS011;2289;48.316;15.174;2024-02-21T14:07:45;3.20;;;1.33;;
4553;SDS011;2289;48.316;15.174;2024-02-21T14:10:16;3.43;;;1.90;;
4553;SDS011;2289;48.316;15.174;2024-02-21T14:12:45;3.13;;;1.60;;
4553;SDS011;2289;48.316;15.174;2024-02-21T14:15:15;7.60;;;2.40;;
4553;SDS011;2289;48.316;15.174;2024-02-21T14:17:44;2.00;;;1.20;;
4553;SDS011;2289;48.316;15.174;2024-02-21T14:20:12;2.80;;;1.67;;
4553;SDS011;2289;48.316;15.174;2024-02-21T14:22:43;2.23;;;1.57;;
4553;SDS011;2289;48.316;15.174;2024-02-21T14:25:12;3.13;;;1.57;;
4553;SDS011;2289;48.316;15.174;2024-02-21T14:27:43;4.47;;;1.97;;
4553;SDS011;2289;48.316;15.174;2024-02-21T14:30:12;2.63;;;1.40;;
4553;SDS011;2289;48.316;15.174;2024-02-21T14:32:41;2.63;;;1.30;;
4553;SDS011;2289;48.316;15.174;2024-02-21T14:35:13;2.77;;;2.07;;
4553;SDS011;2289;48.316;15.174;2024-02-21T14:37:42;2.80;;;1.40;;
4553;SDS011;2289;48.316;15.174;2024-02-21T14:40:12;7.53;;;1.50;;
4553;SDS011;2289;48.316;15.174;2024-02-21T14:42:44;2.67;;;1.67;;
4553;SDS011;2289;48.316;15.174;2024-02-21T14:45:13;3.30;;;2.10;;
4553;SDS011;2289;48.316;15.174;2024-02-21T14:47:41;2.90;;;1.57;;
4553;SDS011;2289;48.316;15.174;2024-02-21T14:50:10;5.30;;;2.00;;
4553;SDS011;2289;48.316;15.174;2024-02-21T14:52:39;6.00;;;2.23;;
4553;SDS011;2289;48.316;15.174;2024-02-21T14:55:09;2.80;;;1.70;;
4553;SDS011;2289;48.316;15.174;2024-02-21T14:57:41;2.30;;;1.60;;
4553;SDS011;2289;48.316;15.174;2024-02-21T15:00:13;6.30;;;3.70;;
4553;SDS011;2289;48.316;15.174;2024-02-21T15:02:42;3.90;;;3.00;;
4553;SDS011;2289;48.316;15.174;2024-02-21T15:05:13;6.40;;;3.17;;
4553;SDS011;2289;48.316;15.174;2024-02-21T15:07:41;9.20;;;7.83;;
4553;SDS011;2289;48.316;15.174;2024-02-21T15:10:12;35.67;;;18.93;;
4553;SDS011;2289;48.316;15.174;2024-02-21T15:12:40;9.03;;;6.83;;
4553;SDS011;2289;48.316;15.174;2024-02-21T15:15:09;6.30;;;3.30;;
4553;SDS011;2289;48.316;15.174;2024-02-21T15:17:40;6.90;;;4.20;;